sensor_id;sensor_type;location;lat;lon;timestamp;P1;durP1;ratioP1;P2;durP2;ratioP2
1613;SDS011;800;48.824;9.346;2023-08-06T00:02:19;3.53;;;3.27;;
1613;SDS011;800;48.824;9.346;2023-08-06T00:04:45;4.53;;;3.40;;
1613;SDS011;800;48.824;9.346;2023-08-06T00:07:11;3.90;;;3.60;;
1613;SDS011;800;48.824;9.346;2023-08-06T00:09:36;3.90;;;3.47;;
1613;SDS011;800;48.824;9.346;2023-08-06T00:12:02;3.83;;;3.53;;
1613;SDS011;800;48.824;9.346;2023-08-06T00:14:28;4.77;;;4.37;;
1613;SDS011;800;48.824;9.346;2023-08-06T00:16:53;4.20;;;3.87;;
1613;SDS011;800;48.824;9.346;2023-08-06T00:19:19;3.90;;;3.60;;
1613;SDS011;800;48.824;9.346;2023-08-06T00:21:44;3.97;;;3.60;;
1613;SDS011;800;48.824;9.346;2023-08-06T00:24:10;3.73;;;3.43;;
1613;SDS011;800;48.824;9.346;2023-08-06T00:26:36;3.87;;;3.40;;
1613;SDS011;800;48.824;9.346;2023-08-06T00:29:01;3.30;;;3.00;;
1613;SDS011;800;48.824;9.346;2023-08-06T00:31:27;5.60;;;3.77;;
1613;SDS011;800;48.824;9.346;2023-08-06T00:33:52;3.83;;;3.53;;
1613;SDS011;800;48.824;9.346;2023-08-06T00:36:18;3.00;;;2.80;;
1613;SDS011;800;48.824;9.346;2023-08-06T00:38:43;4.30;;;3.90;;
1613;SDS011;800;48.824;9.346;2023-08-06T00:41:09;6.33;;;3.20;;
1613;SDS011;800;48.824;9.346;2023-08-06T00:43:35;3.60;;;2.93;;
1613;SDS011;800;48.824;9.346;2023-08-06T00:46:00;3.80;;;3.50;;
1613;SDS011;800;48.824;9.346;2023-08-06T00:48:26;3.17;;;2.87;;
1613;SDS011;800;48.824;9.346;2023-08-06T00:50:52;5.60;;;2.97;;
1613;SDS011;800;48.824;9.346;2023-08-06T00:53:18;4.53;;;3.30;;
1613;SDS011;800;48.824;9.346;2023-08-06T00:55:44;3.50;;;3.20;;
1613;SDS011;800;48.824;9.346;2023-08-06T00:58:10;5.60;;;3.20;;
1613;SDS011;800;48.824;9.346;2023-08-06T01:00:37;3.30;;;3.00;;
1613;SDS011;800;48.824;9.346;2023-08-06T01:03:03;3.83;;;3.37;;
1613;SDS011;800;48.824;9.346;2023-08-06T01:05:28;5.83;;;3.63;;
1613;SDS011;800;48.824;9.346;2023-08-06T01:08:30;3.07;;;2.77;;
1613;SDS011;800;48.824;9.346;2023-08-06T01:13:50;3.70;;;3.40;;
1613;SDS011;800;48.824;9.346;2023-08-06T01:16:29;4.17;;;3.80;;
1613;SDS011;800;48.824;9.346;2023-08-06T01:18:56;4.50;;;4.10;;
1613;SDS011;800;48.824;9.346;2023-08-06T01:21:23;6.10;;;3.67;;
1613;SDS011;800;48.824;9.346;2023-08-06T01:23:49;4.90;;;4.40;;
1613;SDS011;800;48.824;9.346;2023-08-06T01:26:15;5.20;;;3.53;;
1613;SDS011;800;48.824;9.346;2023-08-06T01:31:31;4.10;;;3.70;;
1613;SDS011;800;48.824;9.346;2023-08-06T01:33:59;4.03;;;3.57;;
1613;SDS011;800;48.824;9.346;2023-08-06T01:36:28;4.60;;;3.20;;
1613;SDS011;800;48.824;9.346;2023-08-06T01:38:55;4.10;;;3.70;;
1613;SDS011;800;48.824;9.346;2023-08-06T01:41:22;5.00;;;4.10;;
1613;SDS011;800;48.824;9.346;2023-08-06T01:43:47;4.17;;;3.77;;
1613;SDS011;800;48.824;9.346;2023-08-06T01:46:13;5.50;;;4.70;;
1613;SDS011;800;48.824;9.346;2023-08-06T01:48:38;3.90;;;3.60;;
1613;SDS011;800;48.824;9.346;2023-08-06T01:51:04;8.23;;;4.70;;
1613;SDS011;800;48.824;9.346;2023-08-06T01:53:33;4.67;;;4.10;;
1613;SDS011;800;48.824;9.346;2023-08-06T01:55:59;4.53;;;4.23;;
1613;SDS011;800;48.824;9.346;2023-08-06T01:58:25;5.80;;;3.60;;
1613;SDS011;800;48.824;9.346;2023-08-06T02:00:50;4.60;;;4.20;;
1613;SDS011;800;48.824;9.346;2023-08-06T02:03:16;3.67;;;3.37;;
1613;SDS011;800;48.824;9.346;2023-08-06T02:05:41;4.40;;;4.10;;
1613;SDS011;800;48.824;9.346;2023-08-06T02:08:07;3.47;;;3.23;;
1613;SDS011;800;48.824;9.346;2023-08-06T02:10:33;4.60;;;3.57;;
1613;SDS011;800;48.824;9.346;2023-08-06T02:12:58;4.33;;;3.97;;
1613;SDS011;800;48.824;9.346;2023-08-06T02:15:24;3.80;;;3.50;;
1613;SDS011;800;48.824;9.346;2023-08-06T02:17:50;3.73;;;3.43;;
1613;SDS011;800;48.824;9.346;2023-08-06T02:20:15;4.20;;;3.90;;
1613;SDS011;800;48.824;9.346;2023-08-06T02:22:41;3.43;;;3.23;;
1613;SDS011;800;48.824;9.346;2023-08-06T02:25:07;4.43;;;3.40;;
1613;SDS011;800;48.824;9.346;2023-08-06T02:27:32;4.27;;;3.87;;
1613;SDS011;800;48.824;9.346;2023-08-06T02:29:58;7.10;;;4.10;;
1613;SDS011;800;48.824;9.346;2023-08-06T02:32:23;4.23;;;3.87;;
1613;SDS011;800;48.824;9.346;2023-08-06T02:34:49;3.87;;;3.57;;
1613;SDS011;800;48.824;9.346;2023-08-06T02:37:15;3.57;;;3.37;;
1613;SDS011;800;48.824;9.346;2023-08-06T02:39:40;5.37;;;3.90;;
1613;SDS011;800;48.824;9.346;2023-08-06T02:42:06;3.90;;;3.60;;
1613;SDS011;800;48.824;9.346;2023-08-06T02:44:32;3.40;;;3.10;;
1613;SDS011;800;48.824;9.346;2023-08-06T02:46:58;3.70;;;3.40;;
1613;SDS011;800;48.824;9.346;2023-08-06T02:49:24;3.07;;;2.87;;
1613;SDS011;800;48.824;9.346;2023-08-06T02:51:50;6.30;;;3.10;;
1613;SDS011;800;48.824;9.346;2023-08-06T02:54:15;2.60;;;2.40;;
1613;SDS011;800;48.824;9.346;2023-08-06T02:56:47;2.53;;;2.33;;
1613;SDS011;800;48.824;9.346;2023-08-06T02:59:13;2.80;;;2.60;;
1613;SDS011;800;48.824;9.346;2023-08-06T03:01:38;3.20;;;2.90;;
1613;SDS011;800;48.824;9.346;2023-08-06T03:04:05;3.37;;;3.00;;
1613;SDS011;800;48.824;9.346;2023-08-06T03:06:31;2.67;;;2.47;;
1613;SDS011;800;48.824;9.346;2023-08-06T03:08:56;4.80;;;2.93;;
1613;SDS011;800;48.824;9.346;2023-08-06T03:11:22;3.73;;;3.13;;
1613;SDS011;800;48.824;9.346;2023-08-06T03:13:47;2.50;;;2.33;;
1613;SDS011;800;48.824;9.346;2023-08-06T03:16:13;4.77;;;3.10;;
1613;SDS011;800;48.824;9.346;2023-08-06T03:18:39;4.43;;;3.20;;
1613;SDS011;800;48.824;9.346;2023-08-06T03:21:05;3.70;;;2.37;;
1613;SDS011;800;48.824;9.346;2023-08-06T03:23:31;3.00;;;2.80;;
1613;SDS011;800;48.824;9.346;2023-08-06T03:26:00;2.50;;;2.30;;
1613;SDS011;800;48.824;9.346;2023-08-06T03:28:29;2.80;;;2.20;;
1613;SDS011;800;48.824;9.346;2023-08-06T03:31:01;2.80;;;2.60;;
1613;SDS011;800;48.824;9.346;2023-08-06T03:33:27;2.50;;;2.40;;
1613;SDS011;800;48.824;9.346;2023-08-06T03:35:52;5.33;;;2.27;;
1613;SDS011;800;48.824;9.346;2023-08-06T03:38:18;2.37;;;1.97;;
1613;SDS011;800;48.824;9.346;2023-08-06T03:40:43;2.70;;;2.50;;
1613;SDS011;800;48.824;9.346;2023-08-06T03:43:09;2.47;;;2.27;;
1613;SDS011;800;48.824;9.346;2023-08-06T03:45:35;2.40;;;2.20;;
1613;SDS011;800;48.824;9.346;2023-08-06T03:48:00;3.30;;;2.40;;
1613;SDS011;800;48.824;9.346;2023-08-06T03:50:26;3.47;;;2.50;;
1613;SDS011;800;48.824;9.346;2023-08-06T03:52:51;2.30;;;2.10;;
1613;SDS011;800;48.824;9.346;2023-08-06T03:55:17;2.40;;;1.90;;
1613;SDS011;800;48.824;9.346;2023-08-06T03:57:42;2.70;;;2.33;;
1613;SDS011;800;48.824;9.346;2023-08-06T04:00:08;2.10;;;1.90;;
1613;SDS011;800;48.824;9.346;2023-08-06T04:02:34;2.43;;;2.23;;
1613;SDS011;800;48.824;9.346;2023-08-06T04:05:00;2.10;;;2.00;;
1613;SDS011;800;48.824;9.346;2023-08-06T04:07:26;4.17;;;2.70;;
1613;SDS011;800;48.824;9.346;2023-08-06T04:09:55;2.40;;;2.20;;
1613;SDS011;800;48.824;9.346;2023-08-06T04:12:24;2.63;;;2.43;;
1613;SDS011;800;48.824;9.346;2023-08-06T04:14:51;2.00;;;1.73;;
1613;SDS011;800;48.824;9.346;2023-08-06T04:17:17;2.20;;;2.10;;
1613;SDS011;800;48.824;9.346;2023-08-06T04:19:45;2.40;;;2.20;;
1613;SDS011;800;48.824;9.346;2023-08-06T04:22:15;3.00;;;2.70;;
1613;SDS011;800;48.824;9.346;2023-08-06T04:24:41;5.40;;;2.87;;
1613;SDS011;800;48.824;9.346;2023-08-06T04:27:08;2.33;;;2.13;;
1613;SDS011;800;48.824;9.346;2023-08-06T04:29:34;2.60;;;2.50;;
1613;SDS011;800;48.824;9.346;2023-08-06T04:32:00;2.30;;;2.10;;
1613;SDS011;800;48.824;9.346;2023-08-06T04:34:25;2.50;;;2.17;;
1613;SDS011;800;48.824;9.346;2023-08-06T04:36:51;3.60;;;2.50;;
1613;SDS011;800;48.824;9.346;2023-08-06T04:39:16;2.20;;;2.07;;
1613;SDS011;800;48.824;9.346;2023-08-06T04:41:42;3.20;;;2.30;;
1613;SDS011;800;48.824;9.346;2023-08-06T04:44:08;2.20;;;2.00;;
1613;SDS011;800;48.824;9.346;2023-08-06T04:46:33;2.63;;;2.43;;
1613;SDS011;800;48.824;9.346;2023-08-06T04:48:59;3.77;;;2.30;;
1613;SDS011;800;48.824;9.346;2023-08-06T04:51:24;2.60;;;2.20;;
1613;SDS011;800;48.824;9.346;2023-08-06T04:53:50;2.57;;;2.10;;
1613;SDS011;800;48.824;9.346;2023-08-06T04:56:15;2.43;;;2.00;;
1613;SDS011;800;48.824;9.346;2023-08-06T04:58:41;2.20;;;2.00;;
1613;SDS011;800;48.824;9.346;2023-08-06T05:01:07;3.67;;;2.40;;
1613;SDS011;800;48.824;9.346;2023-08-06T05:03:32;4.00;;;2.40;;
1613;SDS011;800;48.824;9.346;2023-08-06T05:05:58;2.70;;;2.50;;
1613;SDS011;800;48.824;9.346;2023-08-06T05:08:23;2.60;;;2.40;;
1613;SDS011;800;48.824;9.346;2023-08-06T05:10:49;2.43;;;2.23;;
1613;SDS011;800;48.824;9.346;2023-08-06T05:13:15;2.53;;;2.10;;
1613;SDS011;800;48.824;9.346;2023-08-06T05:15:41;2.40;;;2.00;;
1613;SDS011;800;48.824;9.346;2023-08-06T05:18:08;3.43;;;2.33;;
1613;SDS011;800;48.824;9.346;2023-08-06T05:20:40;2.00;;;1.90;;
1613;SDS011;800;48.824;9.346;2023-08-06T05:23:06;3.57;;;2.53;;
1613;SDS011;800;48.824;9.346;2023-08-06T05:25:34;6.93;;;2.30;;
1613;SDS011;800;48.824;9.346;2023-08-06T05:28:00;3.40;;;2.07;;
1613;SDS011;800;48.824;9.346;2023-08-06T05:30:26;2.60;;;1.83;;
1613;SDS011;800;48.824;9.346;2023-08-06T05:32:52;3.27;;;2.47;;
1613;SDS011;800;48.824;9.346;2023-08-06T05:35:18;3.07;;;2.30;;
1613;SDS011;800;48.824;9.346;2023-08-06T05:37:44;2.50;;;2.23;;
1613;SDS011;800;48.824;9.346;2023-08-06T05:40:09;3.13;;;1.97;;
1613;SDS011;800;48.824;9.346;2023-08-06T05:42:35;2.33;;;1.93;;
1613;SDS011;800;48.824;9.346;2023-08-06T05:45:00;2.23;;;1.70;;
1613;SDS011;800;48.824;9.346;2023-08-06T05:47:26;2.50;;;1.73;;
1613;SDS011;800;48.824;9.346;2023-08-06T05:49:51;1.67;;;1.57;;
1613;SDS011;800;48.824;9.346;2023-08-06T05:52:17;2.33;;;1.83;;
1613;SDS011;800;48.824;9.346;2023-08-06T05:54:43;2.80;;;1.57;;
1613;SDS011;800;48.824;9.346;2023-08-06T05:57:08;3.23;;;1.80;;
1613;SDS011;800;48.824;9.346;2023-08-06T05:59:34;3.17;;;1.83;;
1613;SDS011;800;48.824;9.346;2023-08-06T06:01:59;2.43;;;1.53;;
1613;SDS011;800;48.824;9.346;2023-08-06T06:04:25;2.27;;;2.07;;
1613;SDS011;800;48.824;9.346;2023-08-06T06:06:50;1.40;;;1.30;;
1613;SDS011;800;48.824;9.346;2023-08-06T06:09:16;4.47;;;1.87;;
1613;SDS011;800;48.824;9.346;2023-08-06T06:11:42;3.57;;;1.30;;
1613;SDS011;800;48.824;9.346;2023-08-06T06:14:07;1.70;;;1.33;;
1613;SDS011;800;48.824;9.346;2023-08-06T06:16:33;2.30;;;1.80;;
1613;SDS011;800;48.824;9.346;2023-08-06T06:18:59;2.10;;;1.20;;
1613;SDS011;800;48.824;9.346;2023-08-06T06:21:25;1.83;;;1.40;;
1613;SDS011;800;48.824;9.346;2023-08-06T06:23:51;1.50;;;1.40;;
1613;SDS011;800;48.824;9.346;2023-08-06T06:26:17;1.20;;;1.10;;
1613;SDS011;800;48.824;9.346;2023-08-06T06:28:43;1.33;;;1.23;;
1613;SDS011;800;48.824;9.346;2023-08-06T06:31:08;1.80;;;0.80;;
1613;SDS011;800;48.824;9.346;2023-08-06T06:33:34;1.20;;;0.73;;
1613;SDS011;800;48.824;9.346;2023-08-06T06:36:00;2.37;;;1.03;;
1613;SDS011;800;48.824;9.346;2023-08-06T06:38:28;1.57;;;1.20;;
1613;SDS011;800;48.824;9.346;2023-08-06T06:40:54;1.90;;;1.00;;
1613;SDS011;800;48.824;9.346;2023-08-06T06:43:21;1.00;;;0.90;;
1613;SDS011;800;48.824;9.346;2023-08-06T06:45:46;0.80;;;0.80;;
1613;SDS011;800;48.824;9.346;2023-08-06T06:48:12;5.77;;;1.03;;
1613;SDS011;800;48.824;9.346;2023-08-06T06:50:37;1.57;;;0.83;;
1613;SDS011;800;48.824;9.346;2023-08-06T06:53:04;1.53;;;1.13;;
1613;SDS011;800;48.824;9.346;2023-08-06T06:55:30;1.53;;;0.90;;
1613;SDS011;800;48.824;9.346;2023-08-06T06:57:55;1.43;;;1.07;;
1613;SDS011;800;48.824;9.346;2023-08-06T07:00:21;1.13;;;0.97;;
1613;SDS011;800;48.824;9.346;2023-08-06T07:02:47;1.23;;;0.93;;
1613;SDS011;800;48.824;9.346;2023-08-06T07:05:12;1.93;;;1.10;;
1613;SDS011;800;48.824;9.346;2023-08-06T07:07:38;0.80;;;0.80;;
1613;SDS011;800;48.824;9.346;2023-08-06T07:10:03;1.43;;;0.93;;
1613;SDS011;800;48.824;9.346;2023-08-06T07:12:29;0.90;;;0.80;;
1613;SDS011;800;48.824;9.346;2023-08-06T07:14:55;1.97;;;0.80;;
1613;SDS011;800;48.824;9.346;2023-08-06T07:17:21;1.10;;;1.00;;
1613;SDS011;800;48.824;9.346;2023-08-06T07:19:46;1.13;;;0.70;;
1613;SDS011;800;48.824;9.346;2023-08-06T07:22:12;1.40;;;1.00;;
1613;SDS011;800;48.824;9.346;2023-08-06T07:24:37;1.27;;;0.90;;
1613;SDS011;800;48.824;9.346;2023-08-06T07:27:03;1.67;;;0.90;;
1613;SDS011;800;48.824;9.346;2023-08-06T07:29:29;1.27;;;0.77;;
1613;SDS011;800;48.824;9.346;2023-08-06T07:31:55;2.20;;;0.87;;
1613;SDS011;800;48.824;9.346;2023-08-06T07:34:21;0.93;;;0.90;;
1613;SDS011;800;48.824;9.346;2023-08-06T07:36:47;1.10;;;1.00;;
1613;SDS011;800;48.824;9.346;2023-08-06T07:39:12;1.17;;;0.90;;
1613;SDS011;800;48.824;9.346;2023-08-06T07:41:38;2.27;;;0.80;;
1613;SDS011;800;48.824;9.346;2023-08-06T07:44:04;2.13;;;0.90;;
1613;SDS011;800;48.824;9.346;2023-08-06T07:46:29;1.13;;;1.03;;
1613;SDS011;800;48.824;9.346;2023-08-06T07:48:55;2.77;;;1.00;;
1613;SDS011;800;48.824;9.346;2023-08-06T07:51:21;0.70;;;0.70;;
1613;SDS011;800;48.824;9.346;2023-08-06T07:53:46;0.80;;;0.70;;
1613;SDS011;800;48.824;9.346;2023-08-06T07:56:12;0.97;;;0.70;;
1613;SDS011;800;48.824;9.346;2023-08-06T07:58:38;1.00;;;0.70;;
1613;SDS011;800;48.824;9.346;2023-08-06T08:01:03;1.00;;;0.70;;
1613;SDS011;800;48.824;9.346;2023-08-06T08:03:30;0.80;;;0.80;;
1613;SDS011;800;48.824;9.346;2023-08-06T08:05:56;0.90;;;0.70;;
1613;SDS011;800;48.824;9.346;2023-08-06T08:08:25;2.00;;;0.80;;
1613;SDS011;800;48.824;9.346;2023-08-06T08:10:50;0.77;;;0.77;;
1613;SDS011;800;48.824;9.346;2023-08-06T08:13:16;0.70;;;0.67;;
1613;SDS011;800;48.824;9.346;2023-08-06T08:15:42;1.63;;;0.60;;
1613;SDS011;800;48.824;9.346;2023-08-06T08:18:07;0.80;;;0.60;;
1613;SDS011;800;48.824;9.346;2023-08-06T08:20:33;1.27;;;0.70;;
1613;SDS011;800;48.824;9.346;2023-08-06T08:23:00;0.60;;;0.50;;
1613;SDS011;800;48.824;9.346;2023-08-06T08:25:26;2.30;;;0.67;;
1613;SDS011;800;48.824;9.346;2023-08-06T08:27:52;0.60;;;0.53;;
1613;SDS011;800;48.824;9.346;2023-08-06T08:30:18;0.67;;;0.60;;
1613;SDS011;800;48.824;9.346;2023-08-06T08:32:44;0.60;;;0.50;;
1613;SDS011;800;48.824;9.346;2023-08-06T08:35:09;3.00;;;0.77;;
1613;SDS011;800;48.824;9.346;2023-08-06T08:37:37;0.50;;;0.50;;
1613;SDS011;800;48.824;9.346;2023-08-06T08:40:03;0.50;;;0.40;;
1613;SDS011;800;48.824;9.346;2023-08-06T08:42:30;0.50;;;0.50;;
1613;SDS011;800;48.824;9.346;2023-08-06T08:44:56;0.50;;;0.50;;
1613;SDS011;800;48.824;9.346;2023-08-06T08:47:22;0.60;;;0.50;;
1613;SDS011;800;48.824;9.346;2023-08-06T08:49:50;0.53;;;0.47;;
1613;SDS011;800;48.824;9.346;2023-08-06T08:52:19;0.60;;;0.53;;
1613;SDS011;800;48.824;9.346;2023-08-06T08:54:46;0.70;;;0.50;;
1613;SDS011;800;48.824;9.346;2023-08-06T08:57:16;0.87;;;0.50;;
1613;SDS011;800;48.824;9.346;2023-08-06T08:59:42;0.57;;;0.40;;
1613;SDS011;800;48.824;9.346;2023-08-06T09:02:08;1.73;;;0.50;;
1613;SDS011;800;48.824;9.346;2023-08-06T09:04:36;0.50;;;0.50;;
1613;SDS011;800;48.824;9.346;2023-08-06T09:07:02;0.50;;;0.50;;
1613;SDS011;800;48.824;9.346;2023-08-06T09:09:31;0.50;;;0.50;;
1613;SDS011;800;48.824;9.346;2023-08-06T09:12:02;1.10;;;0.50;;
1613;SDS011;800;48.824;9.346;2023-08-06T09:14:37;0.50;;;0.50;;
1613;SDS011;800;48.824;9.346;2023-08-06T09:17:03;0.60;;;0.50;;
1613;SDS011;800;48.824;9.346;2023-08-06T09:19:29;0.80;;;0.70;;
1613;SDS011;800;48.824;9.346;2023-08-06T09:21:55;0.90;;;0.60;;
1613;SDS011;800;48.824;9.346;2023-08-06T09:24:22;1.23;;;0.60;;
1613;SDS011;800;48.824;9.346;2023-08-06T09:26:47;0.50;;;0.50;;
1613;SDS011;800;48.824;9.346;2023-08-06T09:29:13;1.87;;;0.50;;
1613;SDS011;800;48.824;9.346;2023-08-06T09:34:12;0.53;;;0.40;;
1613;SDS011;800;48.824;9.346;2023-08-06T09:36:47;0.50;;;0.50;;
1613;SDS011;800;48.824;9.346;2023-08-06T09:39:16;0.80;;;0.50;;
1613;SDS011;800;48.824;9.346;2023-08-06T09:41:46;1.67;;;0.47;;
1613;SDS011;800;48.824;9.346;2023-08-06T09:44:16;0.70;;;0.40;;
1613;SDS011;800;48.824;9.346;2023-08-06T09:51:53;1.37;;;0.50;;
1613;SDS011;800;48.824;9.346;2023-08-06T09:54:23;0.60;;;0.60;;
1613;SDS011;800;48.824;9.346;2023-08-06T09:56:51;1.27;;;0.50;;
1613;SDS011;800;48.824;9.346;2023-08-06T09:59:17;0.47;;;0.40;;
1613;SDS011;800;48.824;9.346;2023-08-06T10:01:44;0.70;;;0.50;;
1613;SDS011;800;48.824;9.346;2023-08-06T10:04:11;0.40;;;0.40;;
1613;SDS011;800;48.824;9.346;2023-08-06T10:06:41;1.27;;;0.50;;
1613;SDS011;800;48.824;9.346;2023-08-06T10:09:07;0.80;;;0.60;;
1613;SDS011;800;48.824;9.346;2023-08-06T10:11:34;2.20;;;0.60;;
1613;SDS011;800;48.824;9.346;2023-08-06T10:14:35;0.50;;;0.43;;
1613;SDS011;800;48.824;9.346;2023-08-06T10:16:57;1.17;;;0.63;;
1613;SDS011;800;48.824;9.346;2023-08-06T10:19:24;0.50;;;0.50;;
1613;SDS011;800;48.824;9.346;2023-08-06T10:27:12;0.60;;;0.43;;
1613;SDS011;800;48.824;9.346;2023-08-06T10:29:38;0.50;;;0.50;;
1613;SDS011;800;48.824;9.346;2023-08-06T10:32:04;1.70;;;0.60;;
1613;SDS011;800;48.824;9.346;2023-08-06T10:37:21;0.50;;;0.50;;
1613;SDS011;800;48.824;9.346;2023-08-06T10:39:48;0.50;;;0.50;;
1613;SDS011;800;48.824;9.346;2023-08-06T10:42:21;0.50;;;0.50;;
1613;SDS011;800;48.824;9.346;2023-08-06T10:45:12;1.30;;;0.53;;
1613;SDS011;800;48.824;9.346;2023-08-06T10:47:42;0.60;;;0.50;;
1613;SDS011;800;48.824;9.346;2023-08-06T10:50:11;1.17;;;0.50;;
1613;SDS011;800;48.824;9.346;2023-08-06T10:52:38;0.60;;;0.50;;
1613;SDS011;800;48.824;9.346;2023-08-06T10:55:04;0.60;;;0.60;;
1613;SDS011;800;48.824;9.346;2023-08-06T10:57:30;0.60;;;0.60;;
1613;SDS011;800;48.824;9.346;2023-08-06T10:59:56;1.13;;;0.80;;
1613;SDS011;800;48.824;9.346;2023-08-06T11:02:22;0.83;;;0.50;;
1613;SDS011;800;48.824;9.346;2023-08-06T11:04:48;0.73;;;0.60;;
1613;SDS011;800;48.824;9.346;2023-08-06T11:07:14;1.47;;;0.50;;
1613;SDS011;800;48.824;9.346;2023-08-06T11:09:39;0.70;;;0.53;;
1613;SDS011;800;48.824;9.346;2023-08-06T11:12:11;1.17;;;0.70;;
1613;SDS011;800;48.824;9.346;2023-08-06T11:14:37;0.60;;;0.60;;
1613;SDS011;800;48.824;9.346;2023-08-06T11:17:03;0.93;;;0.70;;
1613;SDS011;800;48.824;9.346;2023-08-06T11:19:30;0.80;;;0.60;;
1613;SDS011;800;48.824;9.346;2023-08-06T11:21:56;0.80;;;0.70;;
1613;SDS011;800;48.824;9.346;2023-08-06T11:24:23;1.30;;;0.83;;
1613;SDS011;800;48.824;9.346;2023-08-06T11:26:49;0.80;;;0.63;;
1613;SDS011;800;48.824;9.346;2023-08-06T11:29:15;0.60;;;0.60;;
1613;SDS011;800;48.824;9.346;2023-08-06T11:31:41;0.80;;;0.73;;
1613;SDS011;800;48.824;9.346;2023-08-06T11:34:06;0.73;;;0.73;;
1613;SDS011;800;48.824;9.346;2023-08-06T11:36:33;0.60;;;0.60;;
1613;SDS011;800;48.824;9.346;2023-08-06T11:38:59;1.20;;;1.10;;
1613;SDS011;800;48.824;9.346;2023-08-06T11:41:27;2.40;;;0.80;;
1613;SDS011;800;48.824;9.346;2023-08-06T11:43:53;0.93;;;0.80;;
1613;SDS011;800;48.824;9.346;2023-08-06T11:46:19;0.90;;;0.90;;
1613;SDS011;800;48.824;9.346;2023-08-06T11:48:51;1.53;;;0.80;;
1613;SDS011;800;48.824;9.346;2023-08-06T11:51:17;1.10;;;1.00;;
1613;SDS011;800;48.824;9.346;2023-08-06T11:53:46;1.03;;;1.00;;
1613;SDS011;800;48.824;9.346;2023-08-06T11:56:14;1.23;;;1.13;;
1613;SDS011;800;48.824;9.346;2023-08-06T11:58:41;1.20;;;1.10;;
1613;SDS011;800;48.824;9.346;2023-08-06T12:01:07;1.40;;;1.17;;
1613;SDS011;800;48.824;9.346;2023-08-06T12:03:32;1.27;;;1.17;;
1613;SDS011;800;48.824;9.346;2023-08-06T12:06:03;1.93;;;1.10;;
1613;SDS011;800;48.824;9.346;2023-08-06T12:08:29;1.17;;;1.07;;
1613;SDS011;800;48.824;9.346;2023-08-06T12:10:55;1.20;;;1.10;;
1613;SDS011;800;48.824;9.346;2023-08-06T12:13:20;1.30;;;1.20;;
1613;SDS011;800;48.824;9.346;2023-08-06T12:15:46;1.47;;;1.37;;
1613;SDS011;800;48.824;9.346;2023-08-06T12:18:11;1.37;;;1.27;;
1613;SDS011;800;48.824;9.346;2023-08-06T12:20:37;1.40;;;1.30;;
1613;SDS011;800;48.824;9.346;2023-08-06T12:23:03;1.77;;;1.30;;
1613;SDS011;800;48.824;9.346;2023-08-06T12:25:29;1.50;;;1.40;;
1613;SDS011;800;48.824;9.346;2023-08-06T12:27:54;1.83;;;1.53;;
1613;SDS011;800;48.824;9.346;2023-08-06T12:30:20;1.77;;;1.40;;
1613;SDS011;800;48.824;9.346;2023-08-06T12:32:46;1.87;;;1.70;;
1613;SDS011;800;48.824;9.346;2023-08-06T12:35:11;4.03;;;1.87;;
1613;SDS011;800;48.824;9.346;2023-08-06T12:37:39;2.60;;;1.70;;
1613;SDS011;800;48.824;9.346;2023-08-06T12:40:04;1.67;;;1.57;;
1613;SDS011;800;48.824;9.346;2023-08-06T12:42:30;1.57;;;1.40;;
1613;SDS011;800;48.824;9.346;2023-08-06T12:44:56;2.07;;;1.87;;
1613;SDS011;800;48.824;9.346;2023-08-06T12:47:21;1.50;;;1.40;;
1613;SDS011;800;48.824;9.346;2023-08-06T12:49:47;2.77;;;1.43;;
1613;SDS011;800;48.824;9.346;2023-08-06T12:52:14;2.57;;;1.70;;
1613;SDS011;800;48.824;9.346;2023-08-06T12:54:41;1.90;;;1.67;;
1613;SDS011;800;48.824;9.346;2023-08-06T12:57:07;1.53;;;1.40;;
1613;SDS011;800;48.824;9.346;2023-08-06T12:59:33;2.13;;;1.80;;
1613;SDS011;800;48.824;9.346;2023-08-06T13:01:59;3.60;;;1.80;;
1613;SDS011;800;48.824;9.346;2023-08-06T13:04:25;1.40;;;1.30;;
1613;SDS011;800;48.824;9.346;2023-08-06T13:06:51;3.30;;;1.07;;
1613;SDS011;800;48.824;9.346;2023-08-06T13:09:16;1.30;;;1.20;;
1613;SDS011;800;48.824;9.346;2023-08-06T13:11:42;1.80;;;1.10;;
1613;SDS011;800;48.824;9.346;2023-08-06T13:14:11;2.57;;;1.20;;
1613;SDS011;800;48.824;9.346;2023-08-06T13:16:38;1.77;;;1.10;;
1613;SDS011;800;48.824;9.346;2023-08-06T13:19:06;1.10;;;1.00;;
1613;SDS011;800;48.824;9.346;2023-08-06T13:21:33;1.30;;;1.20;;
1613;SDS011;800;48.824;9.346;2023-08-06T13:23:59;1.30;;;1.10;;
1613;SDS011;800;48.824;9.346;2023-08-06T13:26:27;1.30;;;1.20;;
1613;SDS011;800;48.824;9.346;2023-08-06T13:28:53;1.23;;;1.13;;
1613;SDS011;800;48.824;9.346;2023-08-06T13:31:18;1.00;;;1.00;;
1613;SDS011;800;48.824;9.346;2023-08-06T13:33:44;1.93;;;1.10;;
1613;SDS011;800;48.824;9.346;2023-08-06T13:36:09;1.20;;;1.10;;
1613;SDS011;800;48.824;9.346;2023-08-06T13:38:35;1.63;;;0.90;;
1613;SDS011;800;48.824;9.346;2023-08-06T13:41:01;1.07;;;1.07;;
1613;SDS011;800;48.824;9.346;2023-08-06T13:43:27;1.37;;;1.10;;
1613;SDS011;800;48.824;9.346;2023-08-06T13:45:53;1.40;;;1.07;;
1613;SDS011;800;48.824;9.346;2023-08-06T13:48:18;1.30;;;1.20;;
1613;SDS011;800;48.824;9.346;2023-08-06T13:50:44;1.03;;;0.97;;
1613;SDS011;800;48.824;9.346;2023-08-06T13:53:10;1.37;;;0.97;;
1613;SDS011;800;48.824;9.346;2023-08-06T13:55:35;1.10;;;1.00;;
1613;SDS011;800;48.824;9.346;2023-08-06T13:58:01;1.10;;;0.90;;
1613;SDS011;800;48.824;9.346;2023-08-06T14:00:26;0.87;;;0.83;;
1613;SDS011;800;48.824;9.346;2023-08-06T14:02:52;2.23;;;1.00;;
1613;SDS011;800;48.824;9.346;2023-08-06T14:05:19;1.03;;;0.70;;
1613;SDS011;800;48.824;9.346;2023-08-06T14:07:44;0.70;;;0.70;;
1613;SDS011;800;48.824;9.346;2023-08-06T14:10:10;0.87;;;0.83;;
1613;SDS011;800;48.824;9.346;2023-08-06T14:12:35;1.60;;;0.73;;
1613;SDS011;800;48.824;9.346;2023-08-06T14:15:01;1.33;;;1.00;;
1613;SDS011;800;48.824;9.346;2023-08-06T14:17:28;1.90;;;1.23;;
1613;SDS011;800;48.824;9.346;2023-08-06T14:19:54;0.70;;;0.70;;
1613;SDS011;800;48.824;9.346;2023-08-06T14:22:19;1.03;;;0.90;;
1613;SDS011;800;48.824;9.346;2023-08-06T14:24:45;1.00;;;0.83;;
1613;SDS011;800;48.824;9.346;2023-08-06T14:27:12;1.17;;;0.90;;
1613;SDS011;800;48.824;9.346;2023-08-06T14:29:37;1.00;;;0.80;;
1613;SDS011;800;48.824;9.346;2023-08-06T14:32:03;2.60;;;0.90;;
1613;SDS011;800;48.824;9.346;2023-08-06T14:34:29;1.10;;;1.00;;
1613;SDS011;800;48.824;9.346;2023-08-06T14:36:55;0.80;;;0.70;;
1613;SDS011;800;48.824;9.346;2023-08-06T14:39:20;1.00;;;0.90;;
1613;SDS011;800;48.824;9.346;2023-08-06T14:41:46;0.90;;;0.90;;
1613;SDS011;800;48.824;9.346;2023-08-06T14:44:12;2.30;;;0.90;;
1613;SDS011;800;48.824;9.346;2023-08-06T14:46:37;1.20;;;1.10;;
1613;SDS011;800;48.824;9.346;2023-08-06T14:49:03;1.23;;;1.13;;
1613;SDS011;800;48.824;9.346;2023-08-06T14:51:28;1.10;;;1.00;;
1613;SDS011;800;48.824;9.346;2023-08-06T14:53:54;1.63;;;0.93;;
1613;SDS011;800;48.824;9.346;2023-08-06T14:56:20;1.70;;;1.10;;
1613;SDS011;800;48.824;9.346;2023-08-06T14:58:45;3.10;;;0.93;;
1613;SDS011;800;48.824;9.346;2023-08-06T15:01:11;1.80;;;1.03;;
1613;SDS011;800;48.824;9.346;2023-08-06T15:03:37;2.20;;;1.30;;
1613;SDS011;800;48.824;9.346;2023-08-06T15:06:03;1.17;;;1.00;;
1613;SDS011;800;48.824;9.346;2023-08-06T15:08:28;1.07;;;1.07;;
1613;SDS011;800;48.824;9.346;2023-08-06T15:10:54;1.80;;;1.03;;
1613;SDS011;800;48.824;9.346;2023-08-06T15:13:20;0.93;;;0.93;;
1613;SDS011;800;48.824;9.346;2023-08-06T15:15:46;1.70;;;1.10;;
1613;SDS011;800;48.824;9.346;2023-08-06T15:18:12;1.00;;;0.90;;
1613;SDS011;800;48.824;9.346;2023-08-06T15:20:37;0.80;;;0.80;;
1613;SDS011;800;48.824;9.346;2023-08-06T15:23:03;0.97;;;0.80;;
1613;SDS011;800;48.824;9.346;2023-08-06T15:25:29;1.23;;;1.00;;
1613;SDS011;800;48.824;9.346;2023-08-06T15:27:54;0.83;;;0.83;;
1613;SDS011;800;48.824;9.346;2023-08-06T15:30:20;1.60;;;1.10;;
1613;SDS011;800;48.824;9.346;2023-08-06T15:32:46;0.93;;;0.93;;
1613;SDS011;800;48.824;9.346;2023-08-06T15:35:12;1.77;;;1.00;;
1613;SDS011;800;48.824;9.346;2023-08-06T15:37:38;0.90;;;0.90;;
1613;SDS011;800;48.824;9.346;2023-08-06T15:40:05;1.47;;;0.80;;
1613;SDS011;800;48.824;9.346;2023-08-06T15:42:31;2.30;;;1.20;;
1613;SDS011;800;48.824;9.346;2023-08-06T15:44:57;1.10;;;1.00;;
1613;SDS011;800;48.824;9.346;2023-08-06T15:47:22;1.63;;;0.87;;